Time;durP1;ratioP1;P1;durP2;ratioP2;P2;SDS_P1;SDS_P2;PMS_P1;PMS_P2;Temp;Humidity;BMP_temperature;BMP_pressure;BME280_temperature;BME280_humidity;BME280_pressure;Samples;Min_cycle;Max_cycle;Signal;HPM_P1;HPM_P2
2023/09/11 00:00:27;;;;;;;25.85;16.00;;;20.40;99.90;;;;;;5078605;28;20050;-80
2023/09/11 00:02:54;;;;;;;21.80;15.35;;;20.40;99.90;;;;;;5079599;28;20047;-80
2023/09/11 00:05:19;;;;;;;21.77;14.77;;;20.40;99.90;;;;;;5081490;28;20051;-81
2023/09/11 00:07:45;;;;;;;24.85;16.77;;;20.40;99.90;;;;;;5075318;28;20467;-80
2023/09/11 00:10:11;;;;;;;23.20;16.13;;;20.40;99.90;;;;;;5078849;28;20054;-80
2023/09/11 00:12:37;;;;;;;23.17;16.80;;;20.30;99.90;;;;;;5080296;28;20093;-80
2023/09/11 00:15:02;;;;;;;23.50;16.08;;;20.40;99.90;;;;;;5087900;28;20044;-80
2023/09/11 00:17:29;;;;;;;23.15;15.13;;;20.30;99.90;;;;;;5082750;28;20222;-80
2023/09/11 00:19:54;;;;;;;24.42;15.88;;;20.40;99.90;;;;;;5078365;28;20083;-80
2023/09/11 00:22:20;;;;;;;22.73;15.05;;;20.40;99.90;;;;;;5094842;28;20068;-80
2023/09/11 00:24:46;;;;;;;27.23;16.10;;;20.30;99.90;;;;;;5077746;28;20055;-80
2023/09/11 00:27:11;;;;;;;28.17;16.45;;;20.30;99.90;;;;;;5087523;28;20044;-80
2023/09/11 00:29:37;;;;;;;26.77;16.20;;;20.30;99.90;;;;;;5084340;28;20048;-80
2023/09/11 00:32:02;;;;;;;29.88;16.77;;;20.20;99.90;;;;;;5068486;28;20044;-80
2023/09/11 00:34:29;;;;;;;22.70;16.15;;;20.20;99.90;;;;;;5079246;28;20048;-80
2023/09/11 00:36:55;;;;;;;24.35;15.93;;;20.20;99.90;;;;;;5071278;28;20064;-81
2023/09/11 00:39:21;;;;;;;19.50;15.90;;;20.20;99.90;;;;;;5074076;28;20097;-80
2023/09/11 00:41:47;;;;;;;28.13;15.82;;;20.10;99.90;;;;;;5070550;28;20047;-80
2023/09/11 00:44:13;;;;;;;28.55;16.27;;;20.10;99.90;;;;;;5081232;28;20044;-80
2023/09/11 00:46:39;;;;;;;18.67;16.05;;;20.10;99.90;;;;;;5068408;28;20041;-80
2023/09/11 00:49:06;;;;;;;24.48;16.45;;;20.00;99.90;;;;;;5082542;28;20048;-80
2023/09/11 00:51:32;;;;;;;24.95;16.92;;;20.00;99.90;;;;;;5071327;28;20052;-80
2023/09/11 00:53:58;;;;;;;22.85;16.30;;;20.00;99.90;;;;;;5070810;28;20055;-80
2023/09/11 00:56:24;;;;;;;27.80;17.00;;;20.00;99.90;;;;;;5085841;28;20044;-80
2023/09/11 00:58:50;;;;;;;28.83;16.55;;;20.00;99.90;;;;;;5076062;28;20667;-80
2023/09/11 01:01:17;;;;;;;25.77;16.38;;;19.90;99.90;;;;;;5082626;28;20383;-80
2023/09/11 01:03:44;;;;;;;21.90;15.73;;;20.20;99.90;;;;;;5073137;28;20036;-80
2023/09/11 01:06:10;;;;;;;26.08;15.70;;;19.90;99.90;;;;;;5085475;28;20526;-81
2023/09/11 01:08:36;;;;;;;22.95;16.67;;;19.90;99.90;;;;;;5078049;28;20083;-80
2023/09/11 01:11:01;;;;;;;26.25;16.58;;;19.80;99.90;;;;;;5077035;28;20127;-80
2023/09/11 01:13:27;;;;;;;22.15;16.85;;;19.80;99.90;;;;;;5075367;28;20516;-80
2023/09/11 01:16:09;;;;;;;25.80;16.42;;;19.80;99.90;;;;;;5076421;28;20049;-80
2023/09/11 01:19:07;;;;;;;21.10;16.10;;;19.80;99.90;;;;;;5069643;28;20147;-81
2023/09/11 01:21:51;;;;;;;29.77;17.25;;;19.80;99.90;;;;;;5076499;28;20040;-80
2023/09/11 01:25:03;;;;;;;23.45;16.42;;;19.70;99.90;;;;;;5078650;28;20047;-80
2023/09/11 01:27:57;;;;;;;20.63;15.98;;;19.70;99.90;;;;;;5076909;28;20052;-80
2023/09/11 01:30:25;;;;;;;26.90;16.08;;;19.60;99.90;;;;;;5064946;28;20048;-80
2023/09/11 01:32:52;;;;;;;27.80;16.17;;;19.60;99.90;;;;;;5070471;28;20044;-80
2023/09/11 01:35:17;;;;;;;26.67;17.25;;;19.60;99.90;;;;;;5071604;28;20049;-80
2023/09/11 01:37:43;;;;;;;26.23;17.10;;;19.60;99.90;;;;;;5078978;28;20110;-80
2023/09/11 01:40:09;;;;;;;25.98;17.17;;;19.60;99.90;;;;;;5082584;28;20104;-80
2023/09/11 01:42:43;;;;;;;21.77;16.23;;;19.60;99.90;;;;;;5077733;28;20044;-80
2023/09/11 01:45:13;;;;;;;31.02;16.75;;;19.60;99.90;;;;;;5069482;28;20123;-80
2023/09/11 01:47:39;;;;;;;27.25;17.70;;;19.50;99.90;;;;;;5059570;28;20044;-80
2023/09/11 01:50:06;;;;;;;25.58;16.92;;;19.50;99.90;;;;;;5081898;28;20477;-80
2023/09/11 01:52:33;;;;;;;26.27;17.02;;;19.50;99.90;;;;;;5070499;28;20075;-80
2023/09/11 01:54:59;;;;;;;29.52;16.75;;;19.50;99.90;;;;;;5072883;28;20542;-80
2023/09/11 01:57:27;;;;;;;25.73;17.45;;;19.50;99.90;;;;;;5080309;28;20115;-80
2023/09/11 01:59:53;;;;;;;29.05;17.77;;;19.50;99.90;;;;;;5071610;28;20063;-80
2023/09/11 02:02:19;;;;;;;27.33;17.58;;;19.50;99.90;;;;;;5064767;28;20251;-80
2023/09/11 02:04:45;;;;;;;25.80;17.10;;;19.30;99.90;;;;;;5070134;28;20169;-80
2023/09/11 02:07:10;;;;;;;26.08;16.67;;;19.40;99.90;;;;;;5081607;28;20174;-80
2023/09/11 02:09:36;;;;;;;23.65;17.15;;;19.40;99.90;;;;;;5076831;28;20131;-80
2023/09/11 02:12:02;;;;;;;26.08;16.85;;;19.30;99.90;;;;;;5070696;28;20043;-80
2023/09/11 02:14:28;;;;;;;28.85;17.58;;;19.30;99.90;;;;;;5079476;28;20047;-80
2023/09/11 02:16:54;;;;;;;24.08;17.23;;;19.30;99.90;;;;;;5074256;28;20062;-80
2023/09/11 02:19:19;;;;;;;27.13;17.38;;;19.30;99.90;;;;;;5080395;28;20044;-80
2023/09/11 02:21:45;;;;;;;23.98;17.02;;;19.30;99.90;;;;;;5071035;28;20159;-80
2023/09/11 02:24:10;;;;;;;25.25;17.75;;;19.30;99.90;;;;;;5069362;28;20403;-80
2023/09/11 02:26:36;;;;;;;21.08;17.30;;;19.30;99.90;;;;;;5076347;28;20060;-80
2023/09/11 02:29:02;;;;;;;23.67;17.65;;;19.20;99.90;;;;;;5068639;28;20040;-80
2023/09/11 02:31:27;;;;;;;21.40;17.35;;;19.20;99.90;;;;;;5074930;28;20041;-80
2023/09/11 02:33:53;;;;;;;26.00;18.02;;;19.20;99.90;;;;;;5071915;28;20054;-80
2023/09/11 02:36:19;;;;;;;29.20;18.17;;;19.30;99.90;;;;;;5076752;28;20036;-80
2023/09/11 02:38:44;;;;;;;29.95;16.75;;;19.10;99.90;;;;;;5070551;28;20054;-80
2023/09/11 02:41:10;;;;;;;26.23;16.92;;;19.10;99.90;;;;;;5079961;28;20044;-80
2023/09/11 02:43:35;;;;;;;30.48;18.88;;;19.10;99.90;;;;;;5071036;28;20127;-80
2023/09/11 02:46:01;;;;;;;27.95;18.30;;;19.10;99.90;;;;;;5079541;28;20054;-80
2023/09/11 02:48:27;;;;;;;30.45;17.95;;;19.10;99.90;;;;;;5072599;28;20040;-80
2023/09/11 02:50:53;;;;;;;22.50;17.40;;;19.10;99.90;;;;;;5069660;28;20178;-80
2023/09/11 02:53:18;;;;;;;35.90;18.80;;;19.10;99.90;;;;;;5073256;28;20115;-80
2023/09/11 02:55:44;;;;;;;26.38;17.98;;;19.00;99.90;;;;;;5074079;28;20063;-80
2023/09/11 02:58:09;;;;;;;23.52;17.95;;;19.00;99.90;;;;;;5077001;28;20205;-80
2023/09/11 03:00:36;;;;;;;26.70;18.08;;;19.00;99.90;;;;;;5071627;28;20359;-80
2023/09/11 03:03:05;;;;;;;27.40;17.88;;;19.00;99.90;;;;;;5069154;28;20522;-80
2023/09/11 03:05:32;;;;;;;25.40;19.13;;;19.00;99.90;;;;;;5077150;28;20044;-80
2023/09/11 03:08:01;;;;;;;28.65;18.17;;;19.00;99.90;;;;;;5076878;28;20059;-80
2023/09/11 03:10:28;;;;;;;29.50;18.45;;;19.00;99.90;;;;;;5073477;28;20163;-80
2023/09/11 03:12:54;;;;;;;25.98;18.30;;;19.00;99.90;;;;;;5069110;28;20041;-80
2023/09/11 03:15:24;;;;;;;27.10;19.08;;;18.90;99.90;;;;;;5085759;28;20494;-80
2023/09/11 03:17:49;;;;;;;29.25;17.98;;;18.90;99.90;;;;;;5076503;28;20093;-80
2023/09/11 03:20:15;;;;;;;27.50;18.67;;;18.90;99.90;;;;;;5086216;28;20142;-80
2023/09/11 03:22:41;;;;;;;24.58;18.10;;;18.90;99.90;;;;;;5078923;28;20039;-80
2023/09/11 03:25:07;;;;;;;32.60;19.60;;;18.90;99.90;;;;;;5074135;28;20108;-80
2023/09/11 03:27:32;;;;;;;23.85;18.00;;;18.80;99.90;;;;;;5078877;28;20044;-80
2023/09/11 03:29:58;;;;;;;26.02;17.92;;;18.80;99.90;;;;;;5071502;28;20120;-80
2023/09/11 03:32:23;;;;;;;29.75;18.52;;;18.80;99.90;;;;;;5074612;28;20049;-80
2023/09/11 03:34:55;;;;;;;28.65;19.20;;;18.80;99.90;;;;;;5076703;28;20048;-80
2023/09/11 03:37:21;;;;;;;23.92;19.50;;;18.70;99.90;;;;;;5069640;28;20040;-80
2023/09/11 03:39:47;;;;;;;31.55;19.38;;;18.80;99.90;;;;;;5070001;28;20068;-80
2023/09/11 03:42:13;;;;;;;26.48;18.63;;;18.70;99.90;;;;;;5067412;28;20466;-80
2023/09/11 03:44:38;;;;;;;29.55;18.63;;;18.70;99.90;;;;;;5070328;28;20068;-80
2023/09/11 03:47:04;;;;;;;26.80;20.25;;;18.70;99.90;;;;;;5073824;28;20120;-80
2023/09/11 03:49:30;;;;;;;24.63;18.98;;;18.70;99.90;;;;;;5074040;28;20387;-80
2023/09/11 03:51:57;;;;;;;26.27;20.25;;;18.60;99.90;;;;;;5069957;28;20044;-80
2023/09/11 03:54:23;;;;;;;25.35;18.60;;;18.70;99.90;;;;;;5075294;28;20048;-80
2023/09/11 03:56:49;;;;;;;25.02;19.63;;;18.60;99.90;;;;;;5068212;28;20613;-80
2023/09/11 03:59:14;;;;;;;27.17;19.60;;;18.60;99.90;;;;;;5073848;28;20040;-80
2023/09/11 04:01:40;;;;;;;30.73;18.67;;;18.60;99.90;;;;;;5069323;28;20390;-80
2023/09/11 04:04:07;;;;;;;27.30;19.23;;;18.60;99.90;;;;;;5066326;28;20049;-80
2023/09/11 04:06:33;;;;;;;29.13;18.55;;;18.50;99.90;;;;;;5070916;28;20104;-79
2023/09/11 04:08:58;;;;;;;28.27;19.88;;;18.50;99.90;;;;;;5075825;28;20048;-80
2023/09/11 04:11:24;;;;;;;25.00;18.65;;;18.50;99.90;;;;;;5072544;28;20525;-80
2023/09/11 04:13:50;;;;;;;31.17;19.92;;;18.50;99.90;;;;;;5071585;28;20052;-80
2023/09/11 04:16:15;;;;;;;27.90;18.50;;;18.40;99.90;;;;;;5071757;28;20036;-81
2023/09/11 04:18:42;;;;;;;27.30;18.98;;;18.50;99.90;;;;;;5074999;28;20043;-80
2023/09/11 04:21:08;;;;;;;21.95;17.85;;;18.50;99.90;;;;;;5075534;28;20036;-80
2023/09/11 04:23:34;;;;;;;28.45;19.70;;;18.40;99.90;;;;;;5083415;28;20748;-80
2023/09/11 04:26:00;;;;;;;29.02;19.52;;;18.40;99.90;;;;;;5071714;28;20053;-80
2023/09/11 04:28:26;;;;;;;26.77;18.63;;;18.40;99.90;;;;;;5076112;28;20054;-80
2023/09/11 04:30:52;;;;;;;28.83;18.73;;;18.40;99.90;;;;;;5072908;28;20040;-80
2023/09/11 04:33:18;;;;;;;29.52;19.77;;;18.40;99.90;;;;;;5071756;28;20036;-80
2023/09/11 04:35:44;;;;;;;29.30;18.98;;;18.30;99.90;;;;;;5073421;28;20176;-80
2023/09/11 04:38:09;;;;;;;25.70;18.55;;;18.30;99.90;;;;;;5081491;28;20036;-81
2023/09/11 04:40:35;;;;;;;24.42;18.65;;;18.30;99.90;;;;;;5080306;28;20692;-80
2023/09/11 04:43:01;;;;;;;22.85;18.25;;;18.30;99.90;;;;;;5081689;28;20556;-80
2023/09/11 04:45:26;;;;;;;28.15;19.73;;;18.30;99.90;;;;;;5080033;28;20054;-80
2023/09/11 04:47:52;;;;;;;27.98;19.33;;;18.30;99.90;;;;;;5079995;28;20055;-80
2023/09/11 04:50:17;;;;;;;28.38;18.88;;;18.30;99.90;;;;;;5080329;28;20053;-80
2023/09/11 04:52:43;;;;;;;26.90;18.58;;;18.30;99.90;;;;;;5077692;28;20049;-81
2023/09/11 04:55:09;;;;;;;27.33;19.38;;;18.30;99.90;;;;;;5071020;28;20049;-80
2023/09/11 04:57:36;;;;;;;26.40;18.50;;;18.20;99.90;;;;;;5072933;28;20075;-80
2023/09/11 05:00:06;;;;;;;24.00;17.83;;;18.20;99.90;;;;;;5069954;28;20127;-80
2023/09/11 05:02:31;;;;;;;27.75;18.83;;;18.20;99.90;;;;;;5069285;28;20079;-80
2023/09/11 05:04:57;;;;;;;33.22;18.65;;;18.20;99.90;;;;;;5075007;28;20072;-80
2023/09/11 05:07:22;;;;;;;26.05;18.85;;;18.20;99.90;;;;;;5074636;28;20056;-80
2023/09/11 05:09:48;;;;;;;29.73;18.30;;;18.20;99.90;;;;;;5072629;28;20037;-79
2023/09/11 05:12:13;;;;;;;26.77;19.20;;;18.20;99.90;;;;;;5072512;28;20044;-79
2023/09/11 05:14:39;;;;;;;26.15;18.77;;;18.30;99.90;;;;;;5079104;28;20044;-80
2023/09/11 05:17:05;;;;;;;28.00;18.00;;;18.30;99.90;;;;;;5075179;28;20041;-80
2023/09/11 05:19:30;;;;;;;31.77;18.58;;;18.30;99.90;;;;;;5077112;28;20045;-79
2023/09/11 05:21:56;;;;;;;28.23;18.77;;;18.40;99.90;;;;;;5077793;28;20071;-80
2023/09/11 05:24:21;;;;;;;34.50;18.88;;;18.40;99.90;;;;;;5073085;28;20045;-80
2023/09/11 05:26:47;;;;;;;25.80;18.23;;;18.40;99.90;;;;;;5078563;28;20041;-80
2023/09/11 05:29:12;;;;;;;31.00;18.17;;;18.50;99.90;;;;;;5084799;28;20067;-80
2023/09/11 05:31:38;;;;;;;25.65;18.63;;;18.50;99.90;;;;;;5074715;28;20123;-80
2023/09/11 05:34:03;;;;;;;27.92;18.30;;;18.50;99.90;;;;;;5068450;28;20051;-80
2023/09/11 05:36:29;;;;;;;31.52;18.50;;;18.50;99.90;;;;;;5077528;28;20046;-80
2023/09/11 05:38:54;;;;;;;34.20;18.90;;;18.60;99.90;;;;;;5078752;28;20048;-81
2023/09/11 05:41:20;;;;;;;27.50;17.40;;;18.60;99.90;;;;;;5077535;28;20052;-80
2023/09/11 05:43:46;;;;;;;26.20;18.20;;;18.70;99.90;;;;;;5077255;28;20075;-80
2023/09/11 05:46:11;;;;;;;28.35;17.45;;;18.70;99.90;;;;;;5078260;28;20045;-80
2023/09/11 05:48:37;;;;;;;24.88;17.45;;;18.70;99.90;;;;;;5076674;28;20032;-81
2023/09/11 05:51:03;;;;;;;24.73;17.13;;;18.80;99.90;;;;;;5076892;28;20049;-81
2023/09/11 05:53:28;;;;;;;24.50;17.35;;;18.90;99.90;;;;;;5084595;28;20097;-81
2023/09/11 05:55:55;;;;;;;23.10;16.33;;;19.00;99.90;;;;;;5076905;28;20062;-81
2023/09/11 05:58:21;;;;;;;31.48;17.98;;;19.00;99.90;;;;;;5067568;28;20087;-80
2023/09/11 06:00:46;;;;;;;27.10;17.13;;;19.10;99.90;;;;;;5069326;28;20068;-81
2023/09/11 06:03:12;;;;;;;30.98;16.92;;;19.20;99.90;;;;;;5082261;28;20884;-81
2023/09/11 06:05:39;;;;;;;25.00;18.15;;;19.20;99.90;;;;;;5071816;28;20048;-81
2023/09/11 06:08:06;;;;;;;27.55;17.65;;;19.30;99.90;;;;;;5079830;28;20050;-81
2023/09/11 06:10:33;;;;;;;27.02;17.20;;;19.40;99.90;;;;;;5081593;28;20044;-82
2023/09/11 06:12:59;;;;;;;23.17;16.48;;;19.50;99.90;;;;;;5078726;28;20048;-81
2023/09/11 06:15:25;;;;;;;25.45;16.92;;;19.60;99.90;;;;;;5079220;28;20113;-82
2023/09/11 06:17:51;;;;;;;28.35;17.15;;;19.60;99.90;;;;;;5068947;28;20095;-81
2023/09/11 06:20:18;;;;;;;26.70;16.80;;;19.70;99.90;;;;;;5084829;28;20094;-82
2023/09/11 06:22:44;;;;;;;35.05;17.10;;;19.80;99.90;;;;;;5072276;28;20071;-82
2023/09/11 06:25:10;;;;;;;30.33;17.75;;;19.90;99.90;;;;;;5074723;28;20045;-82
2023/09/11 06:27:36;;;;;;;31.73;16.55;;;20.10;99.90;;;;;;5084859;28;20048;-82
2023/09/11 06:30:05;;;;;;;27.92;16.50;;;20.20;99.90;;;;;;5075804;28;20032;-82
2023/09/11 06:32:32;;;;;;;25.58;16.27;;;20.20;99.90;;;;;;5076714;28;20039;-82
2023/09/11 06:34:58;;;;;;;28.67;18.10;;;20.30;99.90;;;;;;5081143;28;20085;-80
2023/09/11 06:37:24;;;;;;;22.00;16.45;;;20.50;99.90;;;;;;5075733;28;20044;-81
2023/09/11 06:39:50;;;;;;;24.23;16.10;;;20.50;99.90;;;;;;5079183;28;20059;-81
2023/09/11 06:42:24;;;;;;;24.58;15.77;;;20.60;99.90;;;;;;5075021;28;20206;-80
2023/09/11 06:44:51;;;;;;;28.35;15.65;;;21.10;99.90;;;;;;5075963;28;20044;-81
2023/09/11 06:47:17;;;;;;;25.63;17.23;;;20.90;99.90;;;;;;5078671;28;20044;-82
2023/09/11 06:49:42;;;;;;;26.17;16.85;;;21.00;99.90;;;;;;5058542;28;20497;-82
2023/09/11 06:52:08;;;;;;;20.48;15.65;;;21.10;99.90;;;;;;5068451;28;20064;-81
2023/09/11 06:54:34;;;;;;;25.23;16.05;;;21.20;99.90;;;;;;5082646;28;20174;-81
2023/09/11 06:57:00;;;;;;;25.75;16.88;;;21.30;99.90;;;;;;5065826;28;20051;-82
2023/09/11 06:59:26;;;;;;;23.17;15.23;;;21.40;99.90;;;;;;5074285;28;20033;-82
2023/09/11 07:01:52;;;;;;;21.52;16.23;;;21.60;99.90;;;;;;5074225;28;20106;-81
2023/09/11 07:04:17;;;;;;;21.90;16.20;;;21.70;99.90;;;;;;5074030;28;20044;-81
2023/09/11 07:06:43;;;;;;;24.48;16.15;;;21.80;99.90;;;;;;5074802;28;20037;-81
2023/09/11 07:09:10;;;;;;;29.17;16.08;;;21.90;99.90;;;;;;5076134;28;20103;-82
2023/09/11 07:11:35;;;;;;;24.50;16.27;;;22.10;99.90;;;;;;5079286;28;20389;-82
2023/09/11 07:14:02;;;;;;;27.10;15.20;;;22.20;99.90;;;;;;5069399;28;20041;-82
2023/09/11 07:16:28;;;;;;;23.73;14.35;;;22.30;99.90;;;;;;5083835;28;20111;-82
2023/09/11 07:18:53;;;;;;;23.67;15.25;;;22.40;99.90;;;;;;5067707;28;20128;-82
2023/09/11 07:21:19;;;;;;;23.35;15.05;;;22.60;99.90;;;;;;5077501;28;20045;-82
2023/09/11 07:23:45;;;;;;;22.83;15.35;;;22.60;99.90;;;;;;5074235;28;20128;-82
2023/09/11 07:26:10;;;;;;;21.77;16.30;;;22.70;99.90;;;;;;5076004;28;20044;-82
2023/09/11 07:28:55;;;;;;;26.15;16.13;;;22.90;99.90;;;;;;5067348;28;20033;-81
2023/09/11 07:31:21;;;;;;;24.08;16.30;;;23.00;99.90;;;;;;5077228;28;20047;-79
2023/09/11 07:33:47;;;;;;;24.10;15.10;;;23.00;99.90;;;;;;5077492;28;20043;-82
2023/09/11 07:36:13;;;;;;;19.60;14.32;;;23.00;99.90;;;;;;5059325;28;20040;-82
2023/09/11 07:38:44;;;;;;;25.42;15.82;;;23.20;99.90;;;;;;5079066;28;20093;-82
2023/09/11 07:41:19;;;;;;;20.03;15.43;;;23.10;99.90;;;;;;5077694;28;20044;-82
2023/09/11 07:43:49;;;;;;;20.77;13.95;;;23.40;99.90;;;;;;5078488;28;20089;-82
2023/09/11 07:46:24;;;;;;;29.67;15.55;;;23.40;99.90;;;;;;5076755;28;20692;-83
2023/09/11 07:48:50;;;;;;;20.52;14.13;;;23.50;99.90;;;;;;5066992;28;20101;-82
2023/09/11 07:51:16;;;;;;;23.10;14.68;;;23.60;99.90;;;;;;5067887;28;20051;-82
2023/09/11 07:53:42;;;;;;;18.58;14.23;;;23.60;99.90;;;;;;5071367;28;20040;-81
2023/09/11 07:56:10;;;;;;;16.42;13.48;;;23.80;99.90;;;;;;5077912;28;20603;-81
2023/09/11 07:58:37;;;;;;;18.92;14.20;;;23.90;99.90;;;;;;5060602;28;20039;-81
2023/09/11 08:01:03;;;;;;;20.08;13.73;;;24.00;99.90;;;;;;5064351;28;20075;-81
2023/09/11 08:03:31;;;;;;;19.40;12.15;;;24.10;99.90;;;;;;5080129;28;20040;-82
2023/09/11 08:05:57;;;;;;;17.92;13.32;;;24.30;99.90;;;;;;5080585;28;20056;-82
2023/09/11 08:08:22;;;;;;;16.48;12.32;;;24.40;99.90;;;;;;5080454;28;20436;-82
2023/09/11 08:10:48;;;;;;;15.45;11.90;;;24.50;99.90;;;;;;5074109;28;20123;-82
2023/09/11 08:13:14;;;;;;;19.42;12.15;;;24.70;99.90;;;;;;5065305;28;20051;-81
2023/09/11 08:15:39;;;;;;;20.73;11.57;;;24.80;99.90;;;;;;5078727;28;20049;-81
2023/09/11 08:18:05;;;;;;;17.67;11.13;;;24.90;99.90;;;;;;5085667;28;20086;-80
2023/09/11 08:20:30;;;;;;;23.73;13.63;;;24.90;99.90;;;;;;5080595;28;20045;-80
2023/09/11 08:22:58;;;;;;;18.40;10.50;;;24.90;99.90;;;;;;5078092;28;20048;-80
2023/09/11 08:25:23;;;;;;;15.35;10.68;;;25.00;99.90;;;;;;5078762;28;20052;-81
2023/09/11 08:27:49;;;;;;;17.38;10.57;;;25.20;99.90;;;;;;5072689;28;20409;-81
2023/09/11 08:30:16;;;;;;;13.15;10.23;;;25.20;99.90;;;;;;5076879;28;20818;-80
2023/09/11 08:32:41;;;;;;;16.85;10.48;;;25.40;99.90;;;;;;5081215;28;20466;-80
2023/09/11 08:35:08;;;;;;;12.82;10.18;;;25.60;99.90;;;;;;5081167;28;20082;-80
2023/09/11 08:37:33;;;;;;;16.17;10.52;;;25.60;99.90;;;;;;5080784;28;20155;-80
2023/09/11 08:39:59;;;;;;;20.02;11.25;;;25.80;99.90;;;;;;5076916;28;20143;-80
2023/09/11 08:42:24;;;;;;;15.90;9.80;;;25.80;99.90;;;;;;5084714;28;20093;-80
2023/09/11 08:44:50;;;;;;;17.05;12.05;;;25.80;99.90;;;;;;5075407;28;20040;-79
2023/09/11 08:47:17;;;;;;;22.27;11.35;;;25.80;99.90;;;;;;5089637;28;20040;-81
2023/09/11 08:49:47;;;;;;;19.73;11.75;;;25.90;99.90;;;;;;5077125;28;20052;-82
2023/09/11 08:52:15;;;;;;;19.17;10.98;;;26.00;99.90;;;;;;5078420;28;20076;-81
2023/09/11 08:54:45;;;;;;;11.68;10.05;;;26.10;99.90;;;;;;5078221;28;20061;-81
2023/09/11 08:57:14;;;;;;;18.45;9.80;;;26.00;99.90;;;;;;5075304;28;20040;-80
2023/09/11 08:59:46;;;;;;;14.40;9.63;;;26.20;99.90;;;;;;5062853;28;20040;-80
2023/09/11 09:02:13;;;;;;;18.00;9.38;;;26.20;99.90;;;;;;5082576;28;20040;-80
2023/09/11 09:04:40;;;;;;;14.20;10.52;;;26.40;99.90;;;;;;5080936;28;20143;-80
2023/09/11 09:07:10;;;;;;;14.48;9.75;;;26.30;99.90;;;;;;5067994;28;20076;-79
2023/09/11 09:09:36;;;;;;;16.95;9.77;;;26.40;99.90;;;;;;5076585;28;20061;-80
2023/09/11 09:12:03;;;;;;;16.67;9.07;;;26.40;99.90;;;;;;5071805;28;20051;-80
2023/09/11 09:14:31;;;;;;;17.08;10.32;;;26.50;99.90;;;;;;5073170;28;20526;-81
2023/09/11 09:16:56;;;;;;;16.63;9.90;;;26.50;99.90;;;;;;5078132;28;20151;-80
2023/09/11 09:19:22;;;;;;;17.02;10.75;;;26.60;99.90;;;;;;5076546;28;20108;-81
2023/09/11 09:22:06;;;;;;;14.63;9.68;;;26.60;99.90;;;;;;5078156;28;20829;-81
2023/09/11 09:24:32;;;;;;;16.58;9.77;;;26.70;99.90;;;;;;5075056;28;20538;-81
2023/09/11 09:26:59;;;;;;;16.80;11.48;;;26.80;99.90;;;;;;5067348;28;20079;-80
2023/09/11 09:29:25;;;;;;;18.02;10.32;;;26.90;99.90;;;;;;5070188;28;20040;-80
2023/09/11 09:31:51;;;;;;;22.30;10.25;;;26.80;99.90;;;;;;5077912;28;20075;-80
2023/09/11 09:34:17;;;;;;;12.23;9.40;;;26.90;99.90;;;;;;5084478;28;20033;-80
2023/09/11 09:36:50;;;;;;;13.90;10.20;;;27.00;99.90;;;;;;5085054;28;20104;-81
2023/09/11 09:39:16;;;;;;;14.93;9.43;;;27.10;99.90;;;;;;5063833;28;20044;-81
2023/09/11 09:41:55;;;;;;;13.48;8.95;;;27.10;99.90;;;;;;5087753;28;20044;-81
2023/09/11 09:44:34;;;;;;;12.43;8.35;;;27.30;99.90;;;;;;5085795;28;20734;-80
2023/09/11 09:47:16;;;;;;;10.68;8.23;;;27.30;99.90;;;;;;5076787;28;20040;-80
2023/09/11 09:49:52;;;;;;;12.75;8.32;;;27.30;99.90;;;;;;5074494;28;20403;-80
2023/09/11 09:52:20;;;;;;;14.65;10.50;;;27.60;99.90;;;;;;5087130;28;20375;-79
2023/09/11 09:54:51;;;;;;;10.82;8.77;;;27.40;99.90;;;;;;5079624;28;20086;-80
2023/09/11 09:57:18;;;;;;;;;;;27.40;99.90;;;;;;5073163;28;20083;-81
2023/09/11 09:59:53;;;;;;;13.35;8.73;;;27.40;99.90;;;;;;5079865;28;19920;-81
2023/09/11 10:02:37;;;;;;;12.18;9.32;;;27.50;99.90;;;;;;5084256;28;20119;-81
2023/09/11 10:05:06;;;;;;;16.65;10.40;;;27.60;99.90;;;;;;5084099;28;20135;-81
2023/09/11 10:07:41;;;;;;;13.70;9.13;;;27.60;99.90;;;;;;5076694;28;20033;-80
2023/09/11 10:10:21;;;;;;;12.98;10.10;;;27.70;99.90;;;;;;5077565;28;20055;-82
2023/09/11 10:12:50;;;;;;;12.98;9.25;;;27.70;99.60;;;;;;5076003;28;20040;-81
2023/09/11 10:15:16;;;;;;;14.63;9.75;;;27.70;99.90;;;;;;5083075;28;20041;-81
2023/09/11 10:17:42;;;;;;;17.45;10.13;;;27.70;99.90;;;;;;5084537;28;20040;-82
2023/09/11 10:20:09;;;;;;;12.60;9.75;;;27.70;99.90;;;;;;5080082;28;20203;-81
2023/09/11 10:22:34;;;;;;;11.75;8.75;;;27.80;99.90;;;;;;5071995;28;20064;-81
2023/09/11 10:25:00;;;;;;;13.82;9.80;;;28.00;99.90;;;;;;5072306;28;20086;-82
2023/09/11 10:27:26;;;;;;;14.68;9.75;;;28.00;99.90;;;;;;5079075;28;20086;-82
2023/09/11 10:30:03;;;;;;;11.60;8.77;;;28.10;99.60;;;;;;5077895;28;20054;-81
2023/09/11 10:32:45;;;;;;;14.13;8.88;;;28.10;99.90;;;;;;5071887;28;20072;-81
2023/09/11 10:35:11;;;;;;;16.33;9.48;;;28.20;99.90;;;;;;5068229;28;20041;-81
2023/09/11 10:37:40;;;;;;;14.50;9.68;;;28.20;99.90;;;;;;5076050;28;20040;-81
2023/09/11 10:40:07;;;;;;;11.45;9.20;;;28.30;99.10;;;;;;5075074;28;20036;-82
2023/09/11 10:42:33;;;;;;;12.57;9.15;;;28.20;99.00;;;;;;5082898;28;20059;-82
2023/09/11 10:44:59;;;;;;;11.43;8.80;;;28.30;98.60;;;;;;5075539;28;20036;-81
2023/09/11 10:47:27;;;;;;;10.80;8.48;;;28.30;98.70;;;;;;5076366;28;20508;-82
2023/09/11 10:49:57;;;;;;;12.85;8.65;;;28.40;97.90;;;;;;5084988;28;20047;-81
2023/09/11 10:52:24;;;;;;;15.80;9.77;;;28.40;97.80;;;;;;5078581;28;20095;-82
2023/09/11 10:54:50;;;;;;;11.70;9.95;;;28.40;97.60;;;;;;5078472;28;20177;-81
2023/09/11 10:57:16;;;;;;;11.43;9.95;;;28.30;97.40;;;;;;5067397;28;20122;-82
2023/09/11 10:59:41;;;;;;;14.93;9.93;;;28.30;97.50;;;;;;5067364;28;20055;-81
2023/09/11 11:02:08;;;;;;;15.30;9.48;;;28.30;97.60;;;;;;5067763;28;20045;-82
2023/09/11 11:04:34;;;;;;;17.25;10.98;;;28.20;97.70;;;;;;5071611;28;20032;-82
2023/09/11 11:07:01;;;;;;;13.52;9.63;;;28.20;97.50;;;;;;5075811;28;20047;-81
2023/09/11 11:09:32;;;;;;;14.75;10.57;;;28.20;97.60;;;;;;5073902;28;20044;-82
2023/09/11 11:12:10;;;;;;;12.98;9.43;;;28.30;97.10;;;;;;5073054;28;20075;-82
2023/09/11 11:14:36;;;;;;;12.65;9.85;;;28.30;97.60;;;;;;5079448;28;20727;-81
2023/09/11 11:17:06;;;;;;;12.82;10.82;;;28.30;97.70;;;;;;5075828;28;20040;-82
2023/09/11 11:19:34;;;;;;;17.83;10.43;;;28.30;97.50;;;;;;5073256;28;20080;-80
2023/09/11 11:22:02;;;;;;;16.15;11.63;;;28.40;97.40;;;;;;5074365;28;20090;-82
2023/09/11 11:24:31;;;;;;;11.65;10.30;;;28.50;97.30;;;;;;5066228;28;20051;-81
2023/09/11 11:26:57;;;;;;;11.82;10.05;;;28.50;97.50;;;;;;5056804;28;20539;-82
2023/09/11 11:29:24;;;;;;;11.40;10.40;;;28.40;97.60;;;;;;5078441;28;20131;-80
2023/09/11 11:31:53;;;;;;;12.25;8.88;;;28.50;97.70;;;;;;5072317;28;20155;-80
2023/09/11 11:34:23;;;;;;;12.00;9.57;;;28.50;96.70;;;;;;5077457;28;20048;-80
2023/09/11 11:36:50;;;;;;;12.05;9.18;;;28.60;96.00;;;;;;5070766;28;20056;-80
2023/09/11 11:39:17;;;;;;;13.82;9.13;;;28.60;96.00;;;;;;5077150;28;20158;-80
2023/09/11 11:41:43;;;;;;;9.43;7.90;;;28.60;95.80;;;;;;5065404;28;20491;-80
2023/09/11 11:44:08;;;;;;;12.20;9.07;;;28.70;95.20;;;;;;5066340;28;20047;-80
2023/09/11 11:46:35;;;;;;;13.23;9.93;;;28.60;94.90;;;;;;5067347;28;20044;-80
2023/09/11 11:49:00;;;;;;;13.25;10.20;;;28.60;94.90;;;;;;5074774;28;20080;-80
2023/09/11 11:51:30;;;;;;;14.68;9.80;;;28.60;95.20;;;;;;5079553;28;20064;-80
2023/09/11 11:53:56;;;;;;;10.30;9.25;;;28.80;95.00;;;;;;5073718;28;20049;-80
2023/09/11 11:56:21;;;;;;;13.27;10.77;;;28.60;95.50;;;;;;5068169;28;20431;-80
2023/09/11 11:58:47;;;;;;;11.93;9.90;;;28.70;95.00;;;;;;5072788;28;20123;-80
2023/09/11 12:01:13;;;;;;;13.10;9.23;;;28.70;94.90;;;;;;5075517;28;20041;-81
2023/09/11 12:03:46;;;;;;;10.52;8.07;;;28.70;95.00;;;;;;5057342;28;20387;-79
2023/09/11 12:06:13;;;;;;;12.15;8.45;;;28.80;94.60;;;;;;5049880;28;20502;-79
2023/09/11 12:08:40;;;;;;;12.63;9.35;;;28.80;94.70;;;;;;5074518;28;20052;-80
2023/09/11 12:11:08;;;;;;;13.65;7.57;;;28.90;94.20;;;;;;5075375;28;20530;-77
2023/09/11 12:13:34;;;;;;;12.10;8.13;;;28.90;93.60;;;;;;5065725;28;20040;-79
2023/09/11 12:16:01;;;;;;;7.53;6.80;;;28.90;93.20;;;;;;5080261;28;20032;-81
2023/09/11 12:18:28;;;;;;;9.75;7.13;;;28.90;92.80;;;;;;5075608;28;20041;-81
2023/09/11 12:21:02;;;;;;;10.40;7.07;;;28.90;91.70;;;;;;5058052;28;20055;-81
2023/09/11 12:23:29;;;;;;;11.93;5.82;;;28.90;90.40;;;;;;5073456;28;20099;-80
2023/09/11 12:25:55;;;;;;;8.38;6.30;;;29.00;90.10;;;;;;5074176;28;20097;-80
2023/09/11 12:28:23;;;;;;;6.95;5.50;;;29.00;87.80;;;;;;5067982;28;20047;-81
2023/09/11 12:30:50;;;;;;;7.00;6.00;;;29.00;87.90;;;;;;5076566;28;20111;-82